createdAt,value
2023-03-29T00:02:17.975Z,97.03
2023-03-29T00:07:19.301Z,97.64
2023-03-29T00:12:20.677Z,97.96
2023-03-29T00:17:22.156Z,96.52
2023-03-29T00:22:23.602Z,97.24
2023-03-29T00:27:24.931Z,97.95
2023-03-29T00:32:26.510Z,97.63
2023-03-29T00:37:29.826Z,97.99
2023-03-29T00:42:31.355Z,98.29
2023-03-29T00:47:41.649Z,98.58
2023-03-29T00:52:46.340Z,98.72
2023-03-29T00:57:49.270Z,98.40
2023-03-29T01:02:54.269Z,99.12
2023-03-29T01:07:58.969Z,98.80
2023-03-29T01:13:06.573Z,99.10
2023-03-29T01:18:09.047Z,98.94
2023-03-29T01:23:29.091Z,98.63
2023-03-29T01:28:39.177Z,99.05
2023-03-29T01:33:42.642Z,98.61
2023-03-29T01:38:49.635Z,97.40
2023-03-29T01:43:55.473Z,97.41
2023-03-29T01:49:03.533Z,96.71
2023-03-29T01:54:11.461Z,97.61
2023-03-29T01:59:20.315Z,98.60
2023-03-29T02:04:25.488Z,99.86
2023-03-29T02:09:28.742Z,100.00
2023-03-29T02:14:30.493Z,100.00
2023-03-29T02:19:32.535Z,100.00
2023-03-29T02:24:36.528Z,100.00
2023-03-29T02:29:37.874Z,100.00
2023-03-29T02:34:42.741Z,100.00
2023-03-29T02:39:44.563Z,100.00
2023-03-29T02:44:47.255Z,100.00
2023-03-29T02:49:48.613Z,100.00
2023-03-29T02:54:51.343Z,100.00
2023-03-29T02:59:57.254Z,100.00
2023-03-29T03:04:59.185Z,100.00
2023-03-29T03:10:00.563Z,100.00
2023-03-29T03:15:02.570Z,100.00
2023-03-29T03:20:05.361Z,99.94
2023-03-29T03:25:06.928Z,99.31
2023-03-29T03:30:08.952Z,99.09
2023-03-29T03:35:11.701Z,98.77
2023-03-29T03:40:13.805Z,97.86
2023-03-29T03:45:15.444Z,97.45
2023-03-29T03:50:17.696Z,96.82
2023-03-29T03:55:19.032Z,96.20
2023-03-29T04:00:20.987Z,96.34
2023-03-29T04:05:22.361Z,96.85
2023-03-29T04:10:23.825Z,97.66
2023-03-29T04:15:26.664Z,98.34
2023-03-29T04:20:28.196Z,98.14
2023-03-29T04:25:29.690Z,96.85
2023-03-29T04:30:31.077Z,97.29
2023-03-29T04:35:33.285Z,97.43
2023-03-29T04:40:34.717Z,97.34
2023-03-29T04:45:36.842Z,96.32
2023-03-29T04:50:38.171Z,96.24
2023-03-29T04:55:39.576Z,94.81
2023-03-29T05:00:40.944Z,95.06
2023-03-29T05:05:42.337Z,95.07
2023-03-29T05:10:43.980Z,94.99
2023-03-29T05:15:45.299Z,95.01
2023-03-29T05:20:47.285Z,95.02
2023-03-29T05:25:51.326Z,93.59
2023-03-29T05:31:04.265Z,93.59
2023-03-29T05:36:11.030Z,93.51
2023-03-29T05:41:13.025Z,94.03
2023-03-29T05:46:14.420Z,93.22
2023-03-29T05:51:15.994Z,92.91
2023-03-29T05:56:17.438Z,93.53
2023-03-29T06:01:18.823Z,93.65
2023-03-29T06:06:21.303Z,93.59
2023-03-29T06:11:24.258Z,93.64
2023-03-29T06:16:26.126Z,94.27
2023-03-29T06:21:28.471Z,94.38
2023-03-29T06:26:30.155Z,93.91
2023-03-29T06:31:31.581Z,93.49
2023-03-29T06:36:34.918Z,93.36
2023-03-29T06:41:36.261Z,93.15
2023-03-29T06:46:37.723Z,92.57
2023-03-29T06:51:40.162Z,92.60
2023-03-29T06:56:41.539Z,91.62
2023-03-29T07:01:43.007Z,90.42
2023-03-29T07:06:48.415Z,89.37
2023-03-29T07:11:50.345Z,88.91
2023-03-29T07:16:51.888Z,87.45
2023-03-29T07:21:54.232Z,87.63
2023-03-29T07:27:04.215Z,88.11
2023-03-29T07:32:06.503Z,87.17
2023-03-29T07:37:09.314Z,87.20
2023-03-29T07:42:10.632Z,86.66
2023-03-29T07:47:12.652Z,85.75
2023-03-29T07:52:13.985Z,84.23
2023-03-29T07:57:15.876Z,82.48
2023-03-29T08:02:17.247Z,81.71
2023-03-29T08:07:21.289Z,81.32
2023-03-29T08:12:24.910Z,80.33
2023-03-29T08:17:26.455Z,81.39
2023-03-29T08:22:28.447Z,80.29
2023-03-29T08:27:30.149Z,79.79
2023-03-29T08:32:31.689Z,79.94
2023-03-29T08:37:33.062Z,80.60
2023-03-29T08:42:51.302Z,80.76
2023-03-29T08:48:11.645Z,80.45
2023-03-29T08:53:22.983Z,80.34
2023-03-29T08:58:26.125Z,79.90
2023-03-29T09:03:35.533Z,78.74
2023-03-29T09:08:42.332Z,76.65
2023-03-29T09:13:52.844Z,77.37
2023-03-29T09:19:06.983Z,76.59
2023-03-29T09:24:11.567Z,77.39
2023-03-29T09:29:31.685Z,75.51
2023-03-29T09:34:41.078Z,74.40
2023-03-29T09:39:42.390Z,73.57
2023-03-29T09:44:45.676Z,72.51
2023-03-29T09:49:49.289Z,71.43
2023-03-29T09:54:51.872Z,71.27
2023-03-29T09:59:53.278Z,70.89
2023-03-29T10:05:03.875Z,70.96
2023-03-29T10:10:07.583Z,70.45
2023-03-29T10:15:16.758Z,70.51
2023-03-29T10:20:24.848Z,71.82
2023-03-29T10:25:28.664Z,71.83
2023-03-29T10:30:33.738Z,71.38
2023-03-29T10:35:41.444Z,71.32
2023-03-29T10:40:47.058Z,70.03
2023-03-29T10:45:49.863Z,69.36
2023-03-29T10:50:53.155Z,69.33
2023-03-29T10:55:54.643Z,68.93
2023-03-29T11:00:56.974Z,68.58
2023-03-29T11:06:07.704Z,69.38
2023-03-29T11:11:19.811Z,68.41
2023-03-29T11:16:29.944Z,67.58
2023-03-29T11:21:37.811Z,66.84
2023-03-29T11:26:54.581Z,65.90
2023-03-29T11:32:14.747Z,62.12
2023-03-29T11:37:20.373Z,62.97
2023-03-29T11:42:24.742Z,60.16
2023-03-29T11:47:32.587Z,60.74
2023-03-29T11:52:36.141Z,59.45
2023-03-29T11:57:39.384Z,58.46
2023-03-29T12:03:00.970Z,57.65
2023-03-29T12:08:09.117Z,59.26
2023-03-29T12:13:15.048Z,56.97
2023-03-29T12:18:28.466Z,55.78
2023-03-29T12:23:31.073Z,57.26
2023-03-29T12:28:44.675Z,57.99
2023-03-29T12:34:04.982Z,59.11
2023-03-29T12:39:11.253Z,57.59
2023-03-29T12:44:14.420Z,55.00
2023-03-29T12:49:35.864Z,55.00
2023-03-29T12:54:37.195Z,53.30
2023-03-29T12:59:46.749Z,52.56
2023-03-29T13:04:48.072Z,54.39
2023-03-29T13:09:51.224Z,53.17
2023-03-29T13:15:03.999Z,53.51
2023-03-29T13:20:31.953Z,52.12
2023-03-29T13:25:41.316Z,53.22
2023-03-29T13:30:50.121Z,51.99
2023-03-29T13:35:59.152Z,54.08
2023-03-29T13:41:06.925Z,54.51
2023-03-29T13:46:18.714Z,53.45
2023-03-29T13:51:23.934Z,55.83
2023-03-29T13:56:27.207Z,57.68
2023-03-29T14:01:31.545Z,58.37
2023-03-29T14:06:34.750Z,58.07
2023-03-29T14:11:36.513Z,58.94
2023-03-29T14:16:39.656Z,56.70
2023-03-29T14:21:41.552Z,56.50
2023-03-29T14:26:46.752Z,56.91
2023-03-29T14:31:48.096Z,56.35
2023-03-29T14:36:50.060Z,56.40
2023-03-29T14:41:52.547Z,56.59
2023-03-29T14:46:54.534Z,57.01
2023-03-29T14:51:56.770Z,58.15
2023-03-29T14:56:58.769Z,58.66
2023-03-29T15:02:00.107Z,60.17
2023-03-29T15:07:02.689Z,59.64
2023-03-29T15:12:04.123Z,60.07
2023-03-29T15:17:16.201Z,60.74
2023-03-29T15:22:17.486Z,61.48
2023-03-29T15:27:19.629Z,62.92
2023-03-29T15:32:22.617Z,63.02
2023-03-29T15:37:23.969Z,61.52
2023-03-29T15:42:25.795Z,62.04
2023-03-29T15:47:27.974Z,63.39
2023-03-29T15:52:29.373Z,63.58
2023-03-29T15:57:31.309Z,64.92
2023-03-29T16:02:32.750Z,64.87
2023-03-29T16:07:34.174Z,65.93
2023-03-29T16:12:38.341Z,66.75
2023-03-29T16:17:39.746Z,68.81
2023-03-29T16:22:41.753Z,71.22
2023-03-29T16:27:43.862Z,72.60
2023-03-29T16:32:45.774Z,73.33
2023-03-29T16:37:47.203Z,73.94
2023-03-29T16:42:48.527Z,75.09
2023-03-29T16:47:50.004Z,75.47
2023-03-29T16:52:54.278Z,75.92
2023-03-29T16:57:55.610Z,77.05
2023-03-29T17:02:56.932Z,77.62
2023-03-29T17:07:58.312Z,79.14
2023-03-29T17:12:59.637Z,79.29
2023-03-29T17:18:01.391Z,80.67
2023-03-29T17:23:02.758Z,81.11
2023-03-29T17:28:04.108Z,82.16
2023-03-29T17:33:05.857Z,83.10
2023-03-29T17:38:07.315Z,84.52
2023-03-29T17:43:08.692Z,86.25
2023-03-29T17:48:10.061Z,86.91
2023-03-29T17:53:12.092Z,88.46
2023-03-29T17:58:13.411Z,89.79
2023-03-29T18:03:14.875Z,90.89
2023-03-29T18:08:16.784Z,91.59
2023-03-29T18:13:24.349Z,92.59
2023-03-29T18:18:26.624Z,93.00
2023-03-29T18:23:28.152Z,93.72
2023-03-29T18:28:30.482Z,94.86
2023-03-29T18:33:35.336Z,95.17
2023-03-29T18:38:36.939Z,95.63
2023-03-29T18:43:39.733Z,95.70
2023-03-29T18:48:41.746Z,95.86
2023-03-29T18:53:44.280Z,95.87
2023-03-29T18:58:46.332Z,95.89
2023-03-29T19:03:48.074Z,95.45
2023-03-29T19:08:49.550Z,95.95
2023-03-29T19:13:52.214Z,95.75
2023-03-29T19:18:53.563Z,96.21
2023-03-29T19:23:54.916Z,96.50
2023-03-29T19:28:56.323Z,96.68
2023-03-29T19:33:57.679Z,96.87
2023-03-29T19:38:59.486Z,97.09
2023-03-29T19:44:01.055Z,97.49
2023-03-29T19:49:04.436Z,97.62
2023-03-29T19:54:07.032Z,98.00
2023-03-29T19:59:10.916Z,98.93
2023-03-29T20:04:12.322Z,99.27
2023-03-29T20:09:15.995Z,99.43
2023-03-29T20:14:17.327Z,99.10
2023-03-29T20:19:19.234Z,98.18
2023-03-29T20:24:21.240Z,97.62
2023-03-29T20:29:22.575Z,97.20
2023-03-29T20:34:23.898Z,97.77
2023-03-29T20:39:26.053Z,97.14
2023-03-29T20:44:28.267Z,96.66
2023-03-29T20:49:30.265Z,96.82
2023-03-29T20:54:33.420Z,96.63
2023-03-29T20:59:35.603Z,97.27
2023-03-29T21:04:37.005Z,97.63
2023-03-29T21:09:38.342Z,97.91
2023-03-29T21:14:39.671Z,97.35
2023-03-29T21:19:41.356Z,97.83
2023-03-29T21:24:42.689Z,97.67
2023-03-29T21:29:44.028Z,98.54
2023-03-29T21:34:45.345Z,99.37
2023-03-29T21:39:46.655Z,98.63
2023-03-29T21:44:48.003Z,97.74
2023-03-29T21:49:49.308Z,96.96
2023-03-29T21:54:50.830Z,95.31
2023-03-29T21:59:52.134Z,94.91
2023-03-29T22:04:53.437Z,95.48
2023-03-29T22:10:04.141Z,95.67
2023-03-29T22:15:06.421Z,96.29
2023-03-29T22:20:13.801Z,96.98
2023-03-29T22:25:15.918Z,97.31
2023-03-29T22:30:17.798Z,95.74
2023-03-29T22:35:19.153Z,95.44
2023-03-29T22:40:20.738Z,94.83
2023-03-29T22:45:22.065Z,94.06
2023-03-29T22:50:23.452Z,92.96
2023-03-29T22:55:24.750Z,91.42
2023-03-29T23:00:26.340Z,90.28
2023-03-29T23:05:27.649Z,87.35
2023-03-29T23:10:30.389Z,85.57
2023-03-29T23:15:32.254Z,83.71
2023-03-29T23:20:33.625Z,81.51
2023-03-29T23:25:35.253Z,78.63
2023-03-29T23:30:37.097Z,76.85
2023-03-29T23:35:38.423Z,76.88
2023-03-29T23:40:39.733Z,78.20
2023-03-29T23:45:41.051Z,79.48
2023-03-29T23:50:46.193Z,80.73
2023-03-29T23:55:48.429Z,81.19
